sensor_id;sensor_type;location;lat;lon;timestamp;P1;durP1;ratioP1;P2;durP2;ratioP2
75496;SDS011;64074;47.540;19.072;2023-04-06T00:00:41;12.88;;;6.82;;
75496;SDS011;64074;47.540;19.072;2023-04-06T00:03:43;13.82;;;7.40;;
75496;SDS011;64074;47.540;19.072;2023-04-06T00:06:46;15.87;;;7.50;;
75496;SDS011;64074;47.540;19.072;2023-04-06T00:09:49;22.70;;;7.73;;
75496;SDS011;64074;47.540;19.072;2023-04-06T00:12:52;15.52;;;8.02;;
75496;SDS011;64074;47.540;19.072;2023-04-06T00:15:55;14.75;;;7.97;;
75496;SDS011;64074;47.540;19.072;2023-04-06T00:18:58;14.50;;;7.47;;
75496;SDS011;64074;47.540;19.072;2023-04-06T00:22:02;15.50;;;8.10;;
75496;SDS011;64074;47.540;19.072;2023-04-06T00:25:05;13.60;;;7.80;;
75496;SDS011;64074;47.540;19.072;2023-04-06T00:28:08;18.45;;;9.13;;
75496;SDS011;64074;47.540;19.072;2023-04-06T00:31:12;17.23;;;9.30;;
75496;SDS011;64074;47.540;19.072;2023-04-06T00:34:14;20.45;;;9.65;;
75496;SDS011;64074;47.540;19.072;2023-04-06T00:37:19;18.53;;;9.00;;
75496;SDS011;64074;47.540;19.072;2023-04-06T00:40:23;19.50;;;9.87;;
75496;SDS011;64074;47.540;19.072;2023-04-06T00:43:29;17.35;;;9.65;;
75496;SDS011;64074;47.540;19.072;2023-04-06T00:46:32;17.42;;;9.73;;
75496;SDS011;64074;47.540;19.072;2023-04-06T00:49:36;19.75;;;9.57;;
75496;SDS011;64074;47.540;19.072;2023-04-06T00:52:39;17.70;;;9.37;;
75496;SDS011;64074;47.540;19.072;2023-04-06T00:55:44;20.07;;;10.27;;
75496;SDS011;64074;47.540;19.072;2023-04-06T00:58:47;19.83;;;10.07;;
75496;SDS011;64074;47.540;19.072;2023-04-06T01:01:50;20.25;;;10.07;;
75496;SDS011;64074;47.540;19.072;2023-04-06T01:05:06;19.15;;;9.50;;
75496;SDS011;64074;47.540;19.072;2023-04-06T01:08:23;18.33;;;9.47;;
75496;SDS011;64074;47.540;19.072;2023-04-06T01:11:33;17.87;;;9.40;;
75496;SDS011;64074;47.540;19.072;2023-04-06T01:14:38;17.67;;;9.30;;
75496;SDS011;64074;47.540;19.072;2023-04-06T01:17:41;18.90;;;9.57;;
75496;SDS011;64074;47.540;19.072;2023-04-06T01:20:48;19.20;;;9.18;;
75496;SDS011;64074;47.540;19.072;2023-04-06T01:23:53;18.17;;;9.00;;
75496;SDS011;64074;47.540;19.072;2023-04-06T01:27:02;18.50;;;8.80;;
75496;SDS011;64074;47.540;19.072;2023-04-06T01:30:38;18.58;;;8.77;;
75496;SDS011;64074;47.540;19.072;2023-04-06T01:33:48;17.45;;;9.10;;
75496;SDS011;64074;47.540;19.072;2023-04-06T01:36:55;20.95;;;10.05;;
75496;SDS011;64074;47.540;19.072;2023-04-06T01:40:02;17.83;;;9.50;;
75496;SDS011;64074;47.540;19.072;2023-04-06T01:43:16;16.83;;;8.90;;
75496;SDS011;64074;47.540;19.072;2023-04-06T01:46:41;21.02;;;9.38;;
75496;SDS011;64074;47.540;19.072;2023-04-06T01:49:47;17.27;;;8.35;;
75496;SDS011;64074;47.540;19.072;2023-04-06T01:52:51;19.10;;;8.02;;
75496;SDS011;64074;47.540;19.072;2023-04-06T01:55:55;16.07;;;8.57;;
75496;SDS011;64074;47.540;19.072;2023-04-06T01:59:03;17.80;;;8.40;;
75496;SDS011;64074;47.540;19.072;2023-04-06T02:02:12;16.42;;;7.85;;
75496;SDS011;64074;47.540;19.072;2023-04-06T02:05:21;17.92;;;7.63;;
75496;SDS011;64074;47.540;19.072;2023-04-06T02:08:26;15.88;;;7.90;;
75496;SDS011;64074;47.540;19.072;2023-04-06T02:11:29;16.73;;;7.90;;
75496;SDS011;64074;47.540;19.072;2023-04-06T02:14:32;15.27;;;7.53;;
75496;SDS011;64074;47.540;19.072;2023-04-06T02:17:35;16.73;;;7.82;;
75496;SDS011;64074;47.540;19.072;2023-04-06T02:20:38;18.27;;;7.82;;
75496;SDS011;64074;47.540;19.072;2023-04-06T02:23:41;16.20;;;7.97;;
75496;SDS011;64074;47.540;19.072;2023-04-06T02:26:44;15.03;;;8.23;;
75496;SDS011;64074;47.540;19.072;2023-04-06T02:29:47;16.87;;;8.40;;
75496;SDS011;64074;47.540;19.072;2023-04-06T02:32:55;15.77;;;8.00;;
75496;SDS011;64074;47.540;19.072;2023-04-06T02:35:59;17.92;;;8.50;;
75496;SDS011;64074;47.540;19.072;2023-04-06T02:39:04;15.82;;;8.32;;
75496;SDS011;64074;47.540;19.072;2023-04-06T02:42:08;17.33;;;7.63;;
75496;SDS011;64074;47.540;19.072;2023-04-06T02:45:11;15.43;;;7.20;;
75496;SDS011;64074;47.540;19.072;2023-04-06T02:48:18;14.27;;;8.05;;
75496;SDS011;64074;47.540;19.072;2023-04-06T02:51:22;14.32;;;7.90;;
75496;SDS011;64074;47.540;19.072;2023-04-06T02:54:30;15.23;;;7.47;;
75496;SDS011;64074;47.540;19.072;2023-04-06T02:57:35;21.07;;;8.00;;
75496;SDS011;64074;47.540;19.072;2023-04-06T03:00:38;16.33;;;7.73;;
75496;SDS011;64074;47.540;19.072;2023-04-06T03:03:41;18.45;;;7.88;;
75496;SDS011;64074;47.540;19.072;2023-04-06T03:06:51;17.15;;;8.07;;
75496;SDS011;64074;47.540;19.072;2023-04-06T03:10:06;16.30;;;7.90;;
75496;SDS011;64074;47.540;19.072;2023-04-06T03:13:10;15.90;;;8.17;;
75496;SDS011;64074;47.540;19.072;2023-04-06T03:16:29;13.40;;;7.67;;
75496;SDS011;64074;47.540;19.072;2023-04-06T03:19:34;14.80;;;7.80;;
75496;SDS011;64074;47.540;19.072;2023-04-06T03:22:38;15.40;;;7.72;;
75496;SDS011;64074;47.540;19.072;2023-04-06T03:25:43;14.35;;;7.70;;
75496;SDS011;64074;47.540;19.072;2023-04-06T03:28:50;15.40;;;8.00;;
75496;SDS011;64074;47.540;19.072;2023-04-06T03:31:56;15.03;;;7.87;;
75496;SDS011;64074;47.540;19.072;2023-04-06T03:35:08;21.98;;;8.60;;
75496;SDS011;64074;47.540;19.072;2023-04-06T03:38:12;15.15;;;7.97;;
75496;SDS011;64074;47.540;19.072;2023-04-06T03:41:15;16.33;;;7.85;;
75496;SDS011;64074;47.540;19.072;2023-04-06T03:44:26;16.67;;;7.73;;
75496;SDS011;64074;47.540;19.072;2023-04-06T03:47:29;15.17;;;7.87;;
75496;SDS011;64074;47.540;19.072;2023-04-06T03:50:36;17.42;;;8.00;;
75496;SDS011;64074;47.540;19.072;2023-04-06T03:53:41;16.77;;;8.45;;
75496;SDS011;64074;47.540;19.072;2023-04-06T03:56:43;17.98;;;8.30;;
75496;SDS011;64074;47.540;19.072;2023-04-06T03:59:46;14.50;;;8.17;;
75496;SDS011;64074;47.540;19.072;2023-04-06T04:02:49;22.40;;;8.83;;
75496;SDS011;64074;47.540;19.072;2023-04-06T04:05:52;18.25;;;8.68;;
75496;SDS011;64074;47.540;19.072;2023-04-06T04:08:55;18.67;;;8.52;;
75496;SDS011;64074;47.540;19.072;2023-04-06T04:11:57;15.73;;;9.02;;
75496;SDS011;64074;47.540;19.072;2023-04-06T04:15:00;17.00;;;8.33;;
75496;SDS011;64074;47.540;19.072;2023-04-06T04:18:04;16.97;;;8.07;;
75496;SDS011;64074;47.540;19.072;2023-04-06T04:21:07;20.67;;;9.45;;
75496;SDS011;64074;47.540;19.072;2023-04-06T04:24:11;18.67;;;9.32;;
75496;SDS011;64074;47.540;19.072;2023-04-06T04:27:15;17.52;;;8.88;;
75496;SDS011;64074;47.540;19.072;2023-04-06T04:30:18;19.30;;;8.87;;
75496;SDS011;64074;47.540;19.072;2023-04-06T04:33:22;18.87;;;9.07;;
75496;SDS011;64074;47.540;19.072;2023-04-06T04:36:29;16.20;;;8.95;;
75496;SDS011;64074;47.540;19.072;2023-04-06T04:39:35;18.70;;;9.00;;
75496;SDS011;64074;47.540;19.072;2023-04-06T04:42:41;17.48;;;9.48;;
75496;SDS011;64074;47.540;19.072;2023-04-06T04:45:50;17.93;;;9.33;;
75496;SDS011;64074;47.540;19.072;2023-04-06T04:49:09;18.10;;;9.50;;
75496;SDS011;64074;47.540;19.072;2023-04-06T04:52:14;21.02;;;9.05;;
75496;SDS011;64074;47.540;19.072;2023-04-06T04:55:31;17.33;;;9.20;;
75496;SDS011;64074;47.540;19.072;2023-04-06T04:58:35;17.55;;;8.60;;
75496;SDS011;64074;47.540;19.072;2023-04-06T05:01:38;24.57;;;9.90;;
75496;SDS011;64074;47.540;19.072;2023-04-06T05:04:57;18.30;;;8.63;;
75496;SDS011;64074;47.540;19.072;2023-04-06T05:08:02;18.65;;;8.60;;
75496;SDS011;64074;47.540;19.072;2023-04-06T05:11:15;18.00;;;8.73;;
75496;SDS011;64074;47.540;19.072;2023-04-06T05:14:23;19.35;;;10.77;;
75496;SDS011;64074;47.540;19.072;2023-04-06T05:17:27;20.53;;;9.13;;
75496;SDS011;64074;47.540;19.072;2023-04-06T05:20:30;18.67;;;9.73;;
75496;SDS011;64074;47.540;19.072;2023-04-06T05:23:34;20.23;;;9.18;;
75496;SDS011;64074;47.540;19.072;2023-04-06T05:26:38;21.25;;;9.43;;
75496;SDS011;64074;47.540;19.072;2023-04-06T05:29:48;18.52;;;9.70;;
75496;SDS011;64074;47.540;19.072;2023-04-06T05:32:52;23.77;;;10.07;;
75496;SDS011;64074;47.540;19.072;2023-04-06T05:35:56;18.93;;;9.67;;
75496;SDS011;64074;47.540;19.072;2023-04-06T05:39:00;19.77;;;9.77;;
75496;SDS011;64074;47.540;19.072;2023-04-06T05:42:13;20.20;;;10.23;;
75496;SDS011;64074;47.540;19.072;2023-04-06T05:45:29;22.02;;;10.63;;
75496;SDS011;64074;47.540;19.072;2023-04-06T05:48:33;20.00;;;9.53;;
75496;SDS011;64074;47.540;19.072;2023-04-06T05:51:37;20.50;;;10.10;;
75496;SDS011;64074;47.540;19.072;2023-04-06T05:54:41;20.65;;;10.65;;
75496;SDS011;64074;47.540;19.072;2023-04-06T05:57:43;20.33;;;10.25;;
75496;SDS011;64074;47.540;19.072;2023-04-06T06:00:50;20.70;;;10.35;;
75496;SDS011;64074;47.540;19.072;2023-04-06T06:03:55;22.17;;;10.30;;
75496;SDS011;64074;47.540;19.072;2023-04-06T06:07:03;23.53;;;10.90;;
75496;SDS011;64074;47.540;19.072;2023-04-06T06:10:15;19.15;;;9.75;;
75496;SDS011;64074;47.540;19.072;2023-04-06T06:13:21;24.02;;;11.25;;
75496;SDS011;64074;47.540;19.072;2023-04-06T06:16:26;24.58;;;10.60;;
75496;SDS011;64074;47.540;19.072;2023-04-06T06:19:29;21.50;;;10.13;;
75496;SDS011;64074;47.540;19.072;2023-04-06T06:22:36;22.47;;;11.93;;
75496;SDS011;64074;47.540;19.072;2023-04-06T06:25:40;24.80;;;11.05;;
75496;SDS011;64074;47.540;19.072;2023-04-06T06:28:44;25.10;;;12.82;;
75496;SDS011;64074;47.540;19.072;2023-04-06T06:31:48;21.45;;;11.10;;
75496;SDS011;64074;47.540;19.072;2023-04-06T06:34:52;20.73;;;11.27;;
75496;SDS011;64074;47.540;19.072;2023-04-06T06:37:54;24.57;;;10.97;;
75496;SDS011;64074;47.540;19.072;2023-04-06T06:41:01;21.27;;;10.20;;
75496;SDS011;64074;47.540;19.072;2023-04-06T06:44:07;19.65;;;9.98;;
75496;SDS011;64074;47.540;19.072;2023-04-06T06:47:10;19.83;;;9.50;;
75496;SDS011;64074;47.540;19.072;2023-04-06T06:50:13;19.97;;;9.50;;
75496;SDS011;64074;47.540;19.072;2023-04-06T06:53:16;18.83;;;9.27;;
75496;SDS011;64074;47.540;19.072;2023-04-06T06:56:19;17.10;;;9.30;;
75496;SDS011;64074;47.540;19.072;2023-04-06T06:59:22;20.55;;;9.90;;
75496;SDS011;64074;47.540;19.072;2023-04-06T07:02:26;24.65;;;9.90;;
75496;SDS011;64074;47.540;19.072;2023-04-06T07:05:28;18.03;;;9.40;;
75496;SDS011;64074;47.540;19.072;2023-04-06T07:08:33;23.07;;;9.50;;
75496;SDS011;64074;47.540;19.072;2023-04-06T07:11:37;16.00;;;8.65;;
75496;SDS011;64074;47.540;19.072;2023-04-06T07:14:41;19.65;;;10.10;;
75496;SDS011;64074;47.540;19.072;2023-04-06T07:17:44;19.13;;;9.35;;
75496;SDS011;64074;47.540;19.072;2023-04-06T07:20:49;18.27;;;8.90;;
75496;SDS011;64074;47.540;19.072;2023-04-06T07:23:53;17.57;;;8.57;;
75496;SDS011;64074;47.540;19.072;2023-04-06T07:26:57;14.80;;;7.88;;
75496;SDS011;64074;47.540;19.072;2023-04-06T07:30:01;20.40;;;9.55;;
75496;SDS011;64074;47.540;19.072;2023-04-06T07:33:04;15.70;;;8.57;;
75496;SDS011;64074;47.540;19.072;2023-04-06T07:36:10;16.90;;;8.00;;
75496;SDS011;64074;47.540;19.072;2023-04-06T07:39:13;16.83;;;8.97;;
75496;SDS011;64074;47.540;19.072;2023-04-06T07:42:17;21.05;;;9.40;;
75496;SDS011;64074;47.540;19.072;2023-04-06T07:45:20;18.33;;;9.45;;
75496;SDS011;64074;47.540;19.072;2023-04-06T07:48:23;18.33;;;9.05;;
75496;SDS011;64074;47.540;19.072;2023-04-06T07:51:26;18.53;;;9.20;;
75496;SDS011;64074;47.540;19.072;2023-04-06T07:54:30;15.70;;;8.43;;
75496;SDS011;64074;47.540;19.072;2023-04-06T07:57:33;15.88;;;8.32;;
75496;SDS011;64074;47.540;19.072;2023-04-06T08:00:35;17.52;;;8.73;;
75496;SDS011;64074;47.540;19.072;2023-04-06T08:03:39;15.07;;;7.88;;
75496;SDS011;64074;47.540;19.072;2023-04-06T08:06:42;17.13;;;8.77;;
75496;SDS011;64074;47.540;19.072;2023-04-06T08:09:45;15.53;;;8.33;;
75496;SDS011;64074;47.540;19.072;2023-04-06T08:12:47;15.00;;;8.38;;
75496;SDS011;64074;47.540;19.072;2023-04-06T08:15:50;15.88;;;8.00;;
75496;SDS011;64074;47.540;19.072;2023-04-06T08:18:53;19.55;;;9.48;;
75496;SDS011;64074;47.540;19.072;2023-04-06T08:21:55;16.60;;;9.20;;
75496;SDS011;64074;47.540;19.072;2023-04-06T08:24:59;15.27;;;8.60;;
75496;SDS011;64074;47.540;19.072;2023-04-06T08:28:04;16.33;;;8.95;;
75496;SDS011;64074;47.540;19.072;2023-04-06T08:31:07;15.95;;;8.80;;
75496;SDS011;64074;47.540;19.072;2023-04-06T08:34:10;15.48;;;7.95;;
75496;SDS011;64074;47.540;19.072;2023-04-06T08:37:15;14.27;;;8.20;;
75496;SDS011;64074;47.540;19.072;2023-04-06T08:40:19;14.50;;;7.93;;
75496;SDS011;64074;47.540;19.072;2023-04-06T08:43:25;12.18;;;7.25;;
75496;SDS011;64074;47.540;19.072;2023-04-06T08:46:30;13.80;;;7.53;;
75496;SDS011;64074;47.540;19.072;2023-04-06T08:49:34;15.93;;;8.40;;
75496;SDS011;64074;47.540;19.072;2023-04-06T08:52:40;16.90;;;8.37;;
75496;SDS011;64074;47.540;19.072;2023-04-06T08:55:44;13.10;;;6.80;;
75496;SDS011;64074;47.540;19.072;2023-04-06T08:58:47;12.27;;;6.57;;
75496;SDS011;64074;47.540;19.072;2023-04-06T09:01:50;13.73;;;7.28;;
75496;SDS011;64074;47.540;19.072;2023-04-06T09:04:55;10.60;;;6.28;;
75496;SDS011;64074;47.540;19.072;2023-04-06T09:07:58;13.63;;;7.00;;
75496;SDS011;64074;47.540;19.072;2023-04-06T09:11:02;12.30;;;6.67;;
75496;SDS011;64074;47.540;19.072;2023-04-06T09:14:05;12.57;;;7.38;;
75496;SDS011;64074;47.540;19.072;2023-04-06T09:17:09;12.85;;;6.47;;
75496;SDS011;64074;47.540;19.072;2023-04-06T09:20:23;11.32;;;6.40;;
75496;SDS011;64074;47.540;19.072;2023-04-06T09:23:30;13.13;;;7.00;;
75496;SDS011;64074;47.540;19.072;2023-04-06T09:26:43;13.00;;;6.80;;
75496;SDS011;64074;47.540;19.072;2023-04-06T09:29:48;12.23;;;6.57;;
75496;SDS011;64074;47.540;19.072;2023-04-06T09:32:55;12.05;;;6.65;;
75496;SDS011;64074;47.540;19.072;2023-04-06T09:35:59;13.68;;;7.20;;
75496;SDS011;64074;47.540;19.072;2023-04-06T09:39:02;11.93;;;7.20;;
75496;SDS011;64074;47.540;19.072;2023-04-06T09:42:07;12.13;;;6.70;;
75496;SDS011;64074;47.540;19.072;2023-04-06T09:45:11;12.77;;;6.97;;
75496;SDS011;64074;47.540;19.072;2023-04-06T09:48:14;11.85;;;6.20;;
75496;SDS011;64074;47.540;19.072;2023-04-06T09:51:17;10.70;;;5.85;;
75496;SDS011;64074;47.540;19.072;2023-04-06T09:54:22;10.33;;;6.20;;
75496;SDS011;64074;47.540;19.072;2023-04-06T09:57:27;12.17;;;6.70;;
75496;SDS011;64074;47.540;19.072;2023-04-06T10:00:43;14.75;;;6.85;;
75496;SDS011;64074;47.540;19.072;2023-04-06T10:07:10;11.95;;;6.68;;
75496;SDS011;64074;47.540;19.072;2023-04-06T10:10:17;13.60;;;6.73;;
75496;SDS011;64074;47.540;19.072;2023-04-06T10:13:20;10.90;;;5.80;;
75496;SDS011;64074;47.540;19.072;2023-04-06T10:16:26;12.05;;;6.30;;
75496;SDS011;64074;47.540;19.072;2023-04-06T10:19:34;11.73;;;6.25;;
75496;SDS011;64074;47.540;19.072;2023-04-06T10:22:45;11.35;;;6.80;;
75496;SDS011;64074;47.540;19.072;2023-04-06T10:26:15;13.80;;;6.83;;
75496;SDS011;64074;47.540;19.072;2023-04-06T10:29:19;12.70;;;6.50;;
75496;SDS011;64074;47.540;19.072;2023-04-06T10:32:31;9.82;;;6.05;;
75496;SDS011;64074;47.540;19.072;2023-04-06T10:35:46;10.82;;;6.70;;
75496;SDS011;64074;47.540;19.072;2023-04-06T10:38:53;12.32;;;6.70;;
75496;SDS011;64074;47.540;19.072;2023-04-06T10:42:05;11.23;;;6.10;;
75496;SDS011;64074;47.540;19.072;2023-04-06T10:45:18;12.07;;;6.10;;
75496;SDS011;64074;47.540;19.072;2023-04-06T10:48:43;9.80;;;5.90;;
75496;SDS011;64074;47.540;19.072;2023-04-06T10:51:51;9.15;;;6.07;;
75496;SDS011;64074;47.540;19.072;2023-04-06T10:54:55;10.07;;;5.78;;
75496;SDS011;64074;47.540;19.072;2023-04-06T10:57:59;9.93;;;5.70;;
75496;SDS011;64074;47.540;19.072;2023-04-06T11:01:02;9.97;;;5.60;;
75496;SDS011;64074;47.540;19.072;2023-04-06T11:04:05;9.88;;;5.72;;
75496;SDS011;64074;47.540;19.072;2023-04-06T11:07:10;11.02;;;6.03;;
75496;SDS011;64074;47.540;19.072;2023-04-06T11:10:20;9.45;;;5.80;;
75496;SDS011;64074;47.540;19.072;2023-04-06T11:13:24;11.30;;;5.53;;
75496;SDS011;64074;47.540;19.072;2023-04-06T11:16:28;10.83;;;5.87;;
75496;SDS011;64074;47.540;19.072;2023-04-06T11:19:32;9.73;;;5.75;;
75496;SDS011;64074;47.540;19.072;2023-04-06T11:22:47;8.93;;;5.57;;
75496;SDS011;64074;47.540;19.072;2023-04-06T11:25:51;11.35;;;5.80;;
75496;SDS011;64074;47.540;19.072;2023-04-06T11:28:54;10.07;;;5.87;;
75496;SDS011;64074;47.540;19.072;2023-04-06T11:31:58;8.87;;;5.97;;
75496;SDS011;64074;47.540;19.072;2023-04-06T11:35:20;9.57;;;5.88;;
75496;SDS011;64074;47.540;19.072;2023-04-06T11:38:24;13.20;;;6.00;;
75496;SDS011;64074;47.540;19.072;2023-04-06T11:41:26;10.05;;;6.03;;
75496;SDS011;64074;47.540;19.072;2023-04-06T11:44:36;10.83;;;5.83;;
75496;SDS011;64074;47.540;19.072;2023-04-06T11:47:43;8.90;;;5.80;;
75496;SDS011;64074;47.540;19.072;2023-04-06T11:50:46;9.63;;;5.82;;
75496;SDS011;64074;47.540;19.072;2023-04-06T11:53:52;8.52;;;5.82;;
75496;SDS011;64074;47.540;19.072;2023-04-06T11:56:55;10.23;;;5.32;;
75496;SDS011;64074;47.540;19.072;2023-04-06T11:59:58;10.13;;;5.93;;
75496;SDS011;64074;47.540;19.072;2023-04-06T12:03:00;12.70;;;5.83;;
75496;SDS011;64074;47.540;19.072;2023-04-06T12:06:03;10.38;;;6.00;;
75496;SDS011;64074;47.540;19.072;2023-04-06T12:09:06;10.55;;;5.60;;
75496;SDS011;64074;47.540;19.072;2023-04-06T12:12:09;12.32;;;5.53;;
75496;SDS011;64074;47.540;19.072;2023-04-06T12:15:12;8.80;;;5.80;;
75496;SDS011;64074;47.540;19.072;2023-04-06T12:18:16;9.40;;;5.60;;
75496;SDS011;64074;47.540;19.072;2023-04-06T12:21:18;9.30;;;5.28;;
75496;SDS011;64074;47.540;19.072;2023-04-06T12:24:21;9.10;;;5.55;;
75496;SDS011;64074;47.540;19.072;2023-04-06T12:27:24;10.82;;;5.65;;
75496;SDS011;64074;47.540;19.072;2023-04-06T12:30:29;14.63;;;9.80;;
75496;SDS011;64074;47.540;19.072;2023-04-06T12:33:33;10.83;;;6.23;;
75496;SDS011;64074;47.540;19.072;2023-04-06T12:36:36;12.60;;;5.80;;
75496;SDS011;64074;47.540;19.072;2023-04-06T12:39:41;9.63;;;5.63;;
75496;SDS011;64074;47.540;19.072;2023-04-06T12:42:43;10.40;;;6.03;;
75496;SDS011;64074;47.540;19.072;2023-04-06T12:45:48;10.83;;;6.10;;
75496;SDS011;64074;47.540;19.072;2023-04-06T12:48:50;10.13;;;5.97;;
75496;SDS011;64074;47.540;19.072;2023-04-06T12:51:56;10.10;;;5.97;;
75496;SDS011;64074;47.540;19.072;2023-04-06T12:54:58;12.13;;;6.63;;
75496;SDS011;64074;47.540;19.072;2023-04-06T12:58:03;11.00;;;6.03;;
75496;SDS011;64074;47.540;19.072;2023-04-06T13:01:06;10.67;;;6.23;;
75496;SDS011;64074;47.540;19.072;2023-04-06T13:04:10;10.17;;;6.33;;
75496;SDS011;64074;47.540;19.072;2023-04-06T13:07:12;9.98;;;5.75;;
75496;SDS011;64074;47.540;19.072;2023-04-06T13:10:16;9.50;;;6.05;;
75496;SDS011;64074;47.540;19.072;2023-04-06T13:13:23;12.15;;;6.57;;
75496;SDS011;64074;47.540;19.072;2023-04-06T13:16:27;9.13;;;5.83;;
75496;SDS011;64074;47.540;19.072;2023-04-06T13:19:30;8.50;;;6.00;;
75496;SDS011;64074;47.540;19.072;2023-04-06T13:22:33;9.10;;;6.28;;
75496;SDS011;64074;47.540;19.072;2023-04-06T13:25:36;10.10;;;6.15;;
75496;SDS011;64074;47.540;19.072;2023-04-06T13:28:39;9.10;;;5.20;;
75496;SDS011;64074;47.540;19.072;2023-04-06T13:31:42;10.17;;;6.07;;
75496;SDS011;64074;47.540;19.072;2023-04-06T13:34:45;9.17;;;6.17;;
75496;SDS011;64074;47.540;19.072;2023-04-06T13:37:51;9.02;;;5.55;;
75496;SDS011;64074;47.540;19.072;2023-04-06T13:40:55;14.80;;;5.50;;
75496;SDS011;64074;47.540;19.072;2023-04-06T13:43:58;7.68;;;5.10;;
75496;SDS011;64074;47.540;19.072;2023-04-06T13:47:01;8.73;;;5.37;;
75496;SDS011;64074;47.540;19.072;2023-04-06T13:50:04;9.63;;;5.20;;
75496;SDS011;64074;47.540;19.072;2023-04-06T13:53:09;9.48;;;5.78;;
75496;SDS011;64074;47.540;19.072;2023-04-06T13:56:12;9.20;;;5.35;;
75496;SDS011;64074;47.540;19.072;2023-04-06T13:59:15;9.45;;;5.13;;
75496;SDS011;64074;47.540;19.072;2023-04-06T14:02:17;8.37;;;5.30;;
75496;SDS011;64074;47.540;19.072;2023-04-06T14:05:22;9.43;;;5.40;;
75496;SDS011;64074;47.540;19.072;2023-04-06T14:08:25;7.97;;;5.28;;
75496;SDS011;64074;47.540;19.072;2023-04-06T14:11:28;9.30;;;5.50;;
75496;SDS011;64074;47.540;19.072;2023-04-06T14:14:32;10.80;;;5.03;;
75496;SDS011;64074;47.540;19.072;2023-04-06T14:17:35;8.43;;;5.20;;
75496;SDS011;64074;47.540;19.072;2023-04-06T14:20:41;7.33;;;4.70;;
75496;SDS011;64074;47.540;19.072;2023-04-06T14:23:43;8.52;;;5.10;;
75496;SDS011;64074;47.540;19.072;2023-04-06T14:26:48;10.32;;;5.20;;
75496;SDS011;64074;47.540;19.072;2023-04-06T14:29:50;7.93;;;4.68;;
75496;SDS011;64074;47.540;19.072;2023-04-06T14:32:56;7.90;;;4.60;;
75496;SDS011;64074;47.540;19.072;2023-04-06T14:36:03;9.03;;;5.50;;
75496;SDS011;64074;47.540;19.072;2023-04-06T14:39:07;8.15;;;5.07;;
75496;SDS011;64074;47.540;19.072;2023-04-06T14:42:10;9.13;;;5.30;;
75496;SDS011;64074;47.540;19.072;2023-04-06T14:45:13;12.27;;;6.97;;
75496;SDS011;64074;47.540;19.072;2023-04-06T14:48:16;9.53;;;5.27;;
75496;SDS011;64074;47.540;19.072;2023-04-06T14:51:21;7.17;;;4.97;;
75496;SDS011;64074;47.540;19.072;2023-04-06T14:54:23;20.73;;;8.90;;
75496;SDS011;64074;47.540;19.072;2023-04-06T14:57:27;13.32;;;6.47;;
75496;SDS011;64074;47.540;19.072;2023-04-06T15:00:30;10.30;;;5.85;;
75496;SDS011;64074;47.540;19.072;2023-04-06T15:03:34;8.33;;;4.80;;
75496;SDS011;64074;47.540;19.072;2023-04-06T15:06:37;7.63;;;4.50;;
75496;SDS011;64074;47.540;19.072;2023-04-06T15:09:40;9.02;;;5.30;;
75496;SDS011;64074;47.540;19.072;2023-04-06T15:12:43;9.40;;;5.35;;
75496;SDS011;64074;47.540;19.072;2023-04-06T15:15:46;9.98;;;4.95;;
75496;SDS011;64074;47.540;19.072;2023-04-06T15:18:48;8.93;;;5.00;;
75496;SDS011;64074;47.540;19.072;2023-04-06T15:21:52;12.03;;;5.60;;
75496;SDS011;64074;47.540;19.072;2023-04-06T15:24:54;8.98;;;5.07;;
75496;SDS011;64074;47.540;19.072;2023-04-06T15:27:59;11.20;;;5.93;;
75496;SDS011;64074;47.540;19.072;2023-04-06T15:31:03;10.98;;;5.55;;
75496;SDS011;64074;47.540;19.072;2023-04-06T15:34:14;10.67;;;6.37;;
75496;SDS011;64074;47.540;19.072;2023-04-06T15:37:18;10.43;;;5.73;;
75496;SDS011;64074;47.540;19.072;2023-04-06T15:40:21;10.38;;;6.00;;
75496;SDS011;64074;47.540;19.072;2023-04-06T15:43:24;11.82;;;5.70;;
75496;SDS011;64074;47.540;19.072;2023-04-06T15:46:27;10.15;;;6.13;;
75496;SDS011;64074;47.540;19.072;2023-04-06T15:49:30;11.53;;;6.23;;
75496;SDS011;64074;47.540;19.072;2023-04-06T15:52:33;12.07;;;6.00;;
75496;SDS011;64074;47.540;19.072;2023-04-06T15:55:37;10.82;;;5.57;;
75496;SDS011;64074;47.540;19.072;2023-04-06T15:58:41;11.23;;;5.97;;
75496;SDS011;64074;47.540;19.072;2023-04-06T16:01:47;10.52;;;6.30;;
75496;SDS011;64074;47.540;19.072;2023-04-06T16:04:56;11.27;;;6.50;;
75496;SDS011;64074;47.540;19.072;2023-04-06T16:08:00;9.93;;;6.37;;
75496;SDS011;64074;47.540;19.072;2023-04-06T16:11:03;11.55;;;6.15;;
75496;SDS011;64074;47.540;19.072;2023-04-06T16:14:07;11.07;;;6.55;;
75496;SDS011;64074;47.540;19.072;2023-04-06T16:17:09;12.68;;;6.20;;
75496;SDS011;64074;47.540;19.072;2023-04-06T16:20:13;10.27;;;6.30;;
75496;SDS011;64074;47.540;19.072;2023-04-06T16:23:17;12.73;;;5.57;;
75496;SDS011;64074;47.540;19.072;2023-04-06T16:26:21;10.27;;;5.70;;
75496;SDS011;64074;47.540;19.072;2023-04-06T16:29:25;10.40;;;5.90;;
75496;SDS011;64074;47.540;19.072;2023-04-06T16:32:33;10.32;;;5.80;;
75496;SDS011;64074;47.540;19.072;2023-04-06T16:35:41;9.97;;;5.70;;
75496;SDS011;64074;47.540;19.072;2023-04-06T16:38:45;11.70;;;6.40;;
75496;SDS011;64074;47.540;19.072;2023-04-06T16:41:47;12.68;;;7.63;;
75496;SDS011;64074;47.540;19.072;2023-04-06T16:44:50;13.25;;;7.22;;
75496;SDS011;64074;47.540;19.072;2023-04-06T16:47:53;12.55;;;7.55;;
75496;SDS011;64074;47.540;19.072;2023-04-06T16:50:55;13.23;;;7.10;;
75496;SDS011;64074;47.540;19.072;2023-04-06T16:53:58;16.97;;;7.63;;
75496;SDS011;64074;47.540;19.072;2023-04-06T16:57:02;12.18;;;7.47;;
75496;SDS011;64074;47.540;19.072;2023-04-06T17:00:07;13.63;;;7.40;;
75496;SDS011;64074;47.540;19.072;2023-04-06T17:03:11;14.15;;;7.88;;
75496;SDS011;64074;47.540;19.072;2023-04-06T17:06:14;15.10;;;8.77;;
75496;SDS011;64074;47.540;19.072;2023-04-06T17:09:17;13.73;;;7.53;;
75496;SDS011;64074;47.540;19.072;2023-04-06T17:12:20;15.15;;;7.72;;
75496;SDS011;64074;47.540;19.072;2023-04-06T17:15:23;14.60;;;8.07;;
75496;SDS011;64074;47.540;19.072;2023-04-06T17:18:28;14.68;;;8.48;;
75496;SDS011;64074;47.540;19.072;2023-04-06T17:21:31;14.13;;;8.70;;
75496;SDS011;64074;47.540;19.072;2023-04-06T17:24:34;14.70;;;9.03;;
75496;SDS011;64074;47.540;19.072;2023-04-06T17:27:37;15.50;;;9.30;;
75496;SDS011;64074;47.540;19.072;2023-04-06T17:30:43;17.02;;;9.50;;
75496;SDS011;64074;47.540;19.072;2023-04-06T17:33:46;16.35;;;9.45;;
75496;SDS011;64074;47.540;19.072;2023-04-06T17:36:49;16.23;;;10.20;;
75496;SDS011;64074;47.540;19.072;2023-04-06T17:39:52;15.37;;;8.90;;
75496;SDS011;64074;47.540;19.072;2023-04-06T17:42:56;15.38;;;9.50;;
75496;SDS011;64074;47.540;19.072;2023-04-06T17:45:59;21.00;;;11.00;;
75496;SDS011;64074;47.540;19.072;2023-04-06T17:49:02;21.20;;;11.75;;
75496;SDS011;64074;47.540;19.072;2023-04-06T17:52:10;24.70;;;12.90;;
75496;SDS011;64074;47.540;19.072;2023-04-06T17:55:13;24.70;;;12.67;;
75496;SDS011;64074;47.540;19.072;2023-04-06T17:58:16;26.65;;;14.35;;
75496;SDS011;64074;47.540;19.072;2023-04-06T18:01:19;28.38;;;15.35;;
75496;SDS011;64074;47.540;19.072;2023-04-06T18:04:23;25.58;;;14.02;;
75496;SDS011;64074;47.540;19.072;2023-04-06T18:07:26;30.67;;;14.63;;